sensor_id;sensor_type;location;lat;lon;timestamp;P1;durP1;ratioP1;P2;durP2;ratioP2
5553;SDS011;2800;49.528;8.666;2022-07-29T00:00:11;8.60;;;3.40;;
5553;SDS011;2800;49.528;8.666;2022-07-29T00:02:37;6.77;;;3.53;;
5553;SDS011;2800;49.528;8.666;2022-07-29T00:05:03;8.43;;;3.37;;
5553;SDS011;2800;49.528;8.666;2022-07-29T00:07:30;6.90;;;3.67;;
5553;SDS011;2800;49.528;8.666;2022-07-29T00:09:55;6.70;;;3.40;;
5553;SDS011;2800;49.528;8.666;2022-07-29T00:12:22;6.37;;;3.67;;
5553;SDS011;2800;49.528;8.666;2022-07-29T00:14:49;5.50;;;3.50;;
5553;SDS011;2800;49.528;8.666;2022-07-29T00:17:14;7.60;;;3.70;;
5553;SDS011;2800;49.528;8.666;2022-07-29T00:19:40;5.87;;;3.70;;
5553;SDS011;2800;49.528;8.666;2022-07-29T00:22:06;8.40;;;3.90;;
5553;SDS011;2800;49.528;8.666;2022-07-29T00:24:31;6.70;;;4.27;;
5553;SDS011;2800;49.528;8.666;2022-07-29T00:26:57;7.63;;;3.73;;
5553;SDS011;2800;49.528;8.666;2022-07-29T00:29:22;11.80;;;3.83;;
5553;SDS011;2800;49.528;8.666;2022-07-29T00:31:48;7.90;;;3.70;;
5553;SDS011;2800;49.528;8.666;2022-07-29T00:34:13;7.13;;;3.87;;
5553;SDS011;2800;49.528;8.666;2022-07-29T00:36:58;7.57;;;3.97;;
5553;SDS011;2800;49.528;8.666;2022-07-29T00:39:23;10.10;;;4.00;;
5553;SDS011;2800;49.528;8.666;2022-07-29T00:41:49;7.73;;;4.30;;
5553;SDS011;2800;49.528;8.666;2022-07-29T00:44:15;7.43;;;4.50;;
5553;SDS011;2800;49.528;8.666;2022-07-29T00:46:40;5.77;;;3.73;;
5553;SDS011;2800;49.528;8.666;2022-07-29T00:49:06;6.53;;;3.83;;
5553;SDS011;2800;49.528;8.666;2022-07-29T00:51:32;10.30;;;3.93;;
5553;SDS011;2800;49.528;8.666;2022-07-29T00:54:00;6.30;;;3.90;;
5553;SDS011;2800;49.528;8.666;2022-07-29T00:56:26;8.37;;;3.93;;
5553;SDS011;2800;49.528;8.666;2022-07-29T00:58:54;8.43;;;3.60;;
5553;SDS011;2800;49.528;8.666;2022-07-29T01:01:21;8.73;;;4.37;;
5553;SDS011;2800;49.528;8.666;2022-07-29T01:03:46;6.00;;;3.67;;
5553;SDS011;2800;49.528;8.666;2022-07-29T01:06:12;12.33;;;4.10;;
5553;SDS011;2800;49.528;8.666;2022-07-29T01:08:38;5.83;;;3.87;;
5553;SDS011;2800;49.528;8.666;2022-07-29T01:11:04;6.77;;;3.73;;
5553;SDS011;2800;49.528;8.666;2022-07-29T01:13:30;6.07;;;3.80;;
5553;SDS011;2800;49.528;8.666;2022-07-29T01:16:10;6.70;;;3.90;;
5553;SDS011;2800;49.528;8.666;2022-07-29T01:18:39;7.70;;;3.87;;
5553;SDS011;2800;49.528;8.666;2022-07-29T01:24:09;7.63;;;3.63;;
5553;SDS011;2800;49.528;8.666;2022-07-29T01:30:02;7.60;;;3.80;;
5553;SDS011;2800;49.528;8.666;2022-07-29T01:32:29;11.30;;;3.63;;
5553;SDS011;2800;49.528;8.666;2022-07-29T01:35:02;7.50;;;3.90;;
5553;SDS011;2800;49.528;8.666;2022-07-29T01:37:29;5.33;;;3.60;;
5553;SDS011;2800;49.528;8.666;2022-07-29T01:40:11;12.00;;;4.20;;
5553;SDS011;2800;49.528;8.666;2022-07-29T01:42:45;5.80;;;3.40;;
5553;SDS011;2800;49.528;8.666;2022-07-29T01:45:26;7.10;;;3.90;;
5553;SDS011;2800;49.528;8.666;2022-07-29T01:51:18;8.83;;;4.17;;
5553;SDS011;2800;49.528;8.666;2022-07-29T01:53:54;10.30;;;3.70;;
5553;SDS011;2800;49.528;8.666;2022-07-29T01:56:32;9.83;;;3.90;;
5553;SDS011;2800;49.528;8.666;2022-07-29T01:59:01;5.60;;;3.57;;
5553;SDS011;2800;49.528;8.666;2022-07-29T02:01:29;6.70;;;3.80;;
5553;SDS011;2800;49.528;8.666;2022-07-29T02:03:57;8.23;;;4.00;;
5553;SDS011;2800;49.528;8.666;2022-07-29T02:06:27;10.30;;;4.37;;
5553;SDS011;2800;49.528;8.666;2022-07-29T02:08:54;10.03;;;4.27;;
5553;SDS011;2800;49.528;8.666;2022-07-29T02:11:23;7.37;;;4.27;;
5553;SDS011;2800;49.528;8.666;2022-07-29T02:13:49;9.23;;;4.00;;
5553;SDS011;2800;49.528;8.666;2022-07-29T02:16:17;8.73;;;3.97;;
5553;SDS011;2800;49.528;8.666;2022-07-29T02:18:45;7.90;;;4.23;;
5553;SDS011;2800;49.528;8.666;2022-07-29T02:21:15;7.63;;;4.40;;
5553;SDS011;2800;49.528;8.666;2022-07-29T02:23:46;6.93;;;3.90;;
5553;SDS011;2800;49.528;8.666;2022-07-29T02:26:13;8.90;;;3.80;;
5553;SDS011;2800;49.528;8.666;2022-07-29T02:28:41;8.50;;;4.70;;
5553;SDS011;2800;49.528;8.666;2022-07-29T02:31:07;7.30;;;4.00;;
5553;SDS011;2800;49.528;8.666;2022-07-29T02:33:34;7.30;;;3.70;;
5553;SDS011;2800;49.528;8.666;2022-07-29T02:36:00;8.20;;;4.40;;
5553;SDS011;2800;49.528;8.666;2022-07-29T02:38:27;7.30;;;4.00;;
5553;SDS011;2800;49.528;8.666;2022-07-29T02:41:15;8.90;;;4.13;;
5553;SDS011;2800;49.528;8.666;2022-07-29T02:43:48;6.70;;;3.80;;
5553;SDS011;2800;49.528;8.666;2022-07-29T02:46:19;6.43;;;3.87;;
5553;SDS011;2800;49.528;8.666;2022-07-29T02:48:51;8.10;;;4.10;;
5553;SDS011;2800;49.528;8.666;2022-07-29T02:51:49;7.53;;;3.87;;
5553;SDS011;2800;49.528;8.666;2022-07-29T02:54:22;6.77;;;3.70;;
5553;SDS011;2800;49.528;8.666;2022-07-29T02:57:14;7.07;;;4.07;;
5553;SDS011;2800;49.528;8.666;2022-07-29T02:59:56;5.73;;;3.60;;
5553;SDS011;2800;49.528;8.666;2022-07-29T03:02:23;7.70;;;3.90;;
5553;SDS011;2800;49.528;8.666;2022-07-29T03:04:51;7.67;;;4.07;;
5553;SDS011;2800;49.528;8.666;2022-07-29T03:07:19;14.10;;;4.13;;
5553;SDS011;2800;49.528;8.666;2022-07-29T03:09:45;9.07;;;4.50;;
5553;SDS011;2800;49.528;8.666;2022-07-29T03:12:11;7.27;;;4.40;;
5553;SDS011;2800;49.528;8.666;2022-07-29T03:14:38;8.10;;;3.93;;
5553;SDS011;2800;49.528;8.666;2022-07-29T03:17:04;7.00;;;4.27;;
5553;SDS011;2800;49.528;8.666;2022-07-29T03:19:30;7.13;;;4.30;;
5553;SDS011;2800;49.528;8.666;2022-07-29T03:21:57;7.83;;;4.27;;
5553;SDS011;2800;49.528;8.666;2022-07-29T03:24:24;7.10;;;4.10;;
5553;SDS011;2800;49.528;8.666;2022-07-29T03:26:55;6.63;;;4.03;;
5553;SDS011;2800;49.528;8.666;2022-07-29T03:29:21;6.73;;;3.80;;
5553;SDS011;2800;49.528;8.666;2022-07-29T03:31:47;7.83;;;4.27;;
5553;SDS011;2800;49.528;8.666;2022-07-29T03:34:13;7.97;;;4.00;;
5553;SDS011;2800;49.528;8.666;2022-07-29T03:36:38;6.00;;;4.30;;
5553;SDS011;2800;49.528;8.666;2022-07-29T03:39:04;9.93;;;4.00;;
5553;SDS011;2800;49.528;8.666;2022-07-29T03:41:30;9.80;;;4.20;;
5553;SDS011;2800;49.528;8.666;2022-07-29T03:43:57;5.80;;;3.67;;
5553;SDS011;2800;49.528;8.666;2022-07-29T03:46:23;8.20;;;4.27;;
5553;SDS011;2800;49.528;8.666;2022-07-29T03:48:55;7.37;;;4.20;;
5553;SDS011;2800;49.528;8.666;2022-07-29T03:51:23;7.53;;;4.37;;
5553;SDS011;2800;49.528;8.666;2022-07-29T03:53:50;6.77;;;4.23;;
5553;SDS011;2800;49.528;8.666;2022-07-29T03:56:15;7.93;;;3.83;;
5553;SDS011;2800;49.528;8.666;2022-07-29T03:58:45;6.27;;;3.87;;
5553;SDS011;2800;49.528;8.666;2022-07-29T04:01:11;7.17;;;4.07;;
5553;SDS011;2800;49.528;8.666;2022-07-29T04:03:38;7.77;;;4.03;;
5553;SDS011;2800;49.528;8.666;2022-07-29T04:06:05;6.77;;;4.47;;
5553;SDS011;2800;49.528;8.666;2022-07-29T04:08:32;8.30;;;4.40;;
5553;SDS011;2800;49.528;8.666;2022-07-29T04:10:58;7.23;;;4.27;;
5553;SDS011;2800;49.528;8.666;2022-07-29T04:13:25;7.43;;;4.40;;
5553;SDS011;2800;49.528;8.666;2022-07-29T04:15:50;7.30;;;3.90;;
5553;SDS011;2800;49.528;8.666;2022-07-29T04:18:16;7.03;;;4.00;;
5553;SDS011;2800;49.528;8.666;2022-07-29T04:20:41;8.00;;;4.50;;
5553;SDS011;2800;49.528;8.666;2022-07-29T04:23:07;7.57;;;4.10;;
5553;SDS011;2800;49.528;8.666;2022-07-29T04:25:32;5.93;;;4.03;;
5553;SDS011;2800;49.528;8.666;2022-07-29T04:28:01;10.60;;;4.13;;
5553;SDS011;2800;49.528;8.666;2022-07-29T04:30:27;6.60;;;4.00;;
5553;SDS011;2800;49.528;8.666;2022-07-29T04:32:52;6.23;;;4.00;;
5553;SDS011;2800;49.528;8.666;2022-07-29T04:35:21;20.13;;;4.47;;
5553;SDS011;2800;49.528;8.666;2022-07-29T04:37:46;7.20;;;4.00;;
5553;SDS011;2800;49.528;8.666;2022-07-29T04:40:12;7.17;;;4.37;;
5553;SDS011;2800;49.528;8.666;2022-07-29T04:42:38;8.57;;;3.80;;
5553;SDS011;2800;49.528;8.666;2022-07-29T04:45:04;6.33;;;3.87;;
5553;SDS011;2800;49.528;8.666;2022-07-29T04:47:30;12.20;;;4.30;;
5553;SDS011;2800;49.528;8.666;2022-07-29T04:49:56;8.63;;;4.30;;
5553;SDS011;2800;49.528;8.666;2022-07-29T04:52:22;6.67;;;4.13;;
5553;SDS011;2800;49.528;8.666;2022-07-29T04:54:48;7.13;;;4.07;;
5553;SDS011;2800;49.528;8.666;2022-07-29T04:57:14;9.70;;;4.30;;
5553;SDS011;2800;49.528;8.666;2022-07-29T04:59:39;10.60;;;4.53;;
5553;SDS011;2800;49.528;8.666;2022-07-29T05:02:05;6.93;;;4.20;;
5553;SDS011;2800;49.528;8.666;2022-07-29T05:04:30;11.67;;;4.37;;
5553;SDS011;2800;49.528;8.666;2022-07-29T05:06:56;6.20;;;4.30;;
5553;SDS011;2800;49.528;8.666;2022-07-29T05:09:21;6.30;;;4.07;;
5553;SDS011;2800;49.528;8.666;2022-07-29T05:11:47;6.57;;;4.13;;
5553;SDS011;2800;49.528;8.666;2022-07-29T05:14:12;8.97;;;4.13;;
5553;SDS011;2800;49.528;8.666;2022-07-29T05:16:38;11.40;;;4.30;;
5553;SDS011;2800;49.528;8.666;2022-07-29T05:19:07;7.80;;;4.17;;
5553;SDS011;2800;49.528;8.666;2022-07-29T05:21:32;8.90;;;4.53;;
5553;SDS011;2800;49.528;8.666;2022-07-29T05:23:58;6.83;;;3.90;;
5553;SDS011;2800;49.528;8.666;2022-07-29T05:26:23;6.70;;;4.10;;
5553;SDS011;2800;49.528;8.666;2022-07-29T05:28:49;9.10;;;4.03;;
5553;SDS011;2800;49.528;8.666;2022-07-29T05:31:14;7.13;;;3.83;;
5553;SDS011;2800;49.528;8.666;2022-07-29T05:33:40;6.53;;;4.00;;
5553;SDS011;2800;49.528;8.666;2022-07-29T05:36:06;7.83;;;4.37;;
5553;SDS011;2800;49.528;8.666;2022-07-29T05:38:32;7.27;;;4.10;;
5553;SDS011;2800;49.528;8.666;2022-07-29T05:40:58;11.50;;;4.33;;
5553;SDS011;2800;49.528;8.666;2022-07-29T05:43:25;13.03;;;4.30;;
5553;SDS011;2800;49.528;8.666;2022-07-29T05:45:53;8.27;;;4.10;;
5553;SDS011;2800;49.528;8.666;2022-07-29T05:48:19;8.30;;;4.13;;
5553;SDS011;2800;49.528;8.666;2022-07-29T05:50:45;7.20;;;4.30;;
5553;SDS011;2800;49.528;8.666;2022-07-29T05:53:11;7.57;;;4.10;;
5553;SDS011;2800;49.528;8.666;2022-07-29T05:55:36;8.07;;;3.73;;
5553;SDS011;2800;49.528;8.666;2022-07-29T05:58:02;10.00;;;4.23;;
5553;SDS011;2800;49.528;8.666;2022-07-29T06:00:27;6.03;;;3.80;;
5553;SDS011;2800;49.528;8.666;2022-07-29T06:02:53;8.37;;;4.37;;
5553;SDS011;2800;49.528;8.666;2022-07-29T06:05:19;8.53;;;4.30;;
5553;SDS011;2800;49.528;8.666;2022-07-29T06:07:45;10.50;;;4.00;;
5553;SDS011;2800;49.528;8.666;2022-07-29T06:10:10;6.27;;;4.00;;
5553;SDS011;2800;49.528;8.666;2022-07-29T06:12:36;7.47;;;4.03;;
5553;SDS011;2800;49.528;8.666;2022-07-29T06:15:02;7.70;;;4.07;;
5553;SDS011;2800;49.528;8.666;2022-07-29T06:17:28;7.13;;;3.90;;
5553;SDS011;2800;49.528;8.666;2022-07-29T06:19:53;9.23;;;4.70;;
5553;SDS011;2800;49.528;8.666;2022-07-29T06:22:19;7.93;;;4.63;;
5553;SDS011;2800;49.528;8.666;2022-07-29T06:24:44;7.90;;;4.00;;
5553;SDS011;2800;49.528;8.666;2022-07-29T06:27:13;8.20;;;3.83;;
5553;SDS011;2800;49.528;8.666;2022-07-29T06:29:38;7.20;;;4.50;;
5553;SDS011;2800;49.528;8.666;2022-07-29T06:32:04;9.43;;;4.23;;
5553;SDS011;2800;49.528;8.666;2022-07-29T06:34:30;9.87;;;4.43;;
5553;SDS011;2800;49.528;8.666;2022-07-29T06:36:56;7.53;;;4.27;;
5553;SDS011;2800;49.528;8.666;2022-07-29T06:39:21;15.90;;;4.53;;
5553;SDS011;2800;49.528;8.666;2022-07-29T06:41:47;7.47;;;4.00;;
5553;SDS011;2800;49.528;8.666;2022-07-29T06:44:16;12.23;;;5.03;;
5553;SDS011;2800;49.528;8.666;2022-07-29T06:46:43;9.97;;;4.23;;
5553;SDS011;2800;49.528;8.666;2022-07-29T06:49:09;19.67;;;4.80;;
5553;SDS011;2800;49.528;8.666;2022-07-29T06:51:35;18.53;;;4.67;;
5553;SDS011;2800;49.528;8.666;2022-07-29T06:54:01;6.90;;;4.57;;
5553;SDS011;2800;49.528;8.666;2022-07-29T06:56:30;8.13;;;4.50;;
5553;SDS011;2800;49.528;8.666;2022-07-29T06:58:56;10.63;;;4.60;;
5553;SDS011;2800;49.528;8.666;2022-07-29T07:01:22;9.80;;;4.80;;
5553;SDS011;2800;49.528;8.666;2022-07-29T07:03:48;8.77;;;4.80;;
5553;SDS011;2800;49.528;8.666;2022-07-29T07:06:13;9.50;;;5.30;;
5553;SDS011;2800;49.528;8.666;2022-07-29T07:08:39;10.10;;;4.17;;
5553;SDS011;2800;49.528;8.666;2022-07-29T07:11:04;10.63;;;4.90;;
5553;SDS011;2800;49.528;8.666;2022-07-29T07:13:31;12.87;;;5.03;;
5553;SDS011;2800;49.528;8.666;2022-07-29T07:16:00;8.90;;;5.00;;
5553;SDS011;2800;49.528;8.666;2022-07-29T07:18:26;17.90;;;4.70;;
5553;SDS011;2800;49.528;8.666;2022-07-29T07:20:52;6.80;;;4.33;;
5553;SDS011;2800;49.528;8.666;2022-07-29T07:23:18;8.40;;;4.70;;
5553;SDS011;2800;49.528;8.666;2022-07-29T07:25:44;8.10;;;4.73;;
5553;SDS011;2800;49.528;8.666;2022-07-29T07:28:10;8.33;;;4.40;;
5553;SDS011;2800;49.528;8.666;2022-07-29T07:30:35;9.67;;;4.90;;
5553;SDS011;2800;49.528;8.666;2022-07-29T07:33:01;8.70;;;4.80;;
5553;SDS011;2800;49.528;8.666;2022-07-29T07:35:27;9.30;;;5.03;;
5553;SDS011;2800;49.528;8.666;2022-07-29T07:37:53;10.23;;;4.70;;
5553;SDS011;2800;49.528;8.666;2022-07-29T07:40:20;14.80;;;5.17;;
5553;SDS011;2800;49.528;8.666;2022-07-29T07:42:45;7.40;;;4.90;;
5553;SDS011;2800;49.528;8.666;2022-07-29T07:45:11;9.07;;;5.17;;
5553;SDS011;2800;49.528;8.666;2022-07-29T07:47:37;14.33;;;5.47;;
5553;SDS011;2800;49.528;8.666;2022-07-29T07:50:04;11.43;;;4.73;;
5553;SDS011;2800;49.528;8.666;2022-07-29T07:52:31;7.90;;;4.73;;
5553;SDS011;2800;49.528;8.666;2022-07-29T07:54:57;8.80;;;5.00;;
5553;SDS011;2800;49.528;8.666;2022-07-29T07:57:22;9.53;;;5.17;;
5553;SDS011;2800;49.528;8.666;2022-07-29T07:59:48;9.73;;;4.80;;
5553;SDS011;2800;49.528;8.666;2022-07-29T08:02:13;9.70;;;4.57;;
5553;SDS011;2800;49.528;8.666;2022-07-29T08:04:39;8.00;;;4.73;;
5553;SDS011;2800;49.528;8.666;2022-07-29T08:07:05;11.40;;;4.53;;
5553;SDS011;2800;49.528;8.666;2022-07-29T08:09:32;12.00;;;4.73;;
5553;SDS011;2800;49.528;8.666;2022-07-29T08:11:59;9.23;;;4.90;;
5553;SDS011;2800;49.528;8.666;2022-07-29T08:14:28;9.23;;;5.30;;
5553;SDS011;2800;49.528;8.666;2022-07-29T08:16:53;8.57;;;5.30;;
5553;SDS011;2800;49.528;8.666;2022-07-29T08:19:19;11.60;;;4.57;;
5553;SDS011;2800;49.528;8.666;2022-07-29T08:21:45;13.97;;;5.57;;
5553;SDS011;2800;49.528;8.666;2022-07-29T08:24:10;10.63;;;4.90;;
5553;SDS011;2800;49.528;8.666;2022-07-29T08:26:54;9.27;;;4.87;;
5553;SDS011;2800;49.528;8.666;2022-07-29T08:29:20;9.50;;;5.20;;
5553;SDS011;2800;49.528;8.666;2022-07-29T08:31:45;12.10;;;5.17;;
5553;SDS011;2800;49.528;8.666;2022-07-29T08:34:11;14.50;;;5.00;;
5553;SDS011;2800;49.528;8.666;2022-07-29T08:36:37;12.03;;;4.63;;
5553;SDS011;2800;49.528;8.666;2022-07-29T08:39:03;11.90;;;5.43;;
5553;SDS011;2800;49.528;8.666;2022-07-29T08:41:29;11.10;;;5.37;;
5553;SDS011;2800;49.528;8.666;2022-07-29T08:43:55;10.97;;;5.57;;
5553;SDS011;2800;49.528;8.666;2022-07-29T08:46:21;7.70;;;5.23;;
5553;SDS011;2800;49.528;8.666;2022-07-29T08:48:47;11.17;;;5.30;;
5553;SDS011;2800;49.528;8.666;2022-07-29T08:51:17;8.07;;;4.93;;
5553;SDS011;2800;49.528;8.666;2022-07-29T08:53:45;9.53;;;5.60;;
5553;SDS011;2800;49.528;8.666;2022-07-29T08:56:16;12.73;;;5.70;;
5553;SDS011;2800;49.528;8.666;2022-07-29T08:58:43;14.90;;;5.97;;
5553;SDS011;2800;49.528;8.666;2022-07-29T09:01:10;15.07;;;5.30;;
5553;SDS011;2800;49.528;8.666;2022-07-29T09:03:38;11.00;;;6.30;;
5553;SDS011;2800;49.528;8.666;2022-07-29T09:06:05;7.90;;;5.20;;
5553;SDS011;2800;49.528;8.666;2022-07-29T09:08:32;11.20;;;6.07;;
5553;SDS011;2800;49.528;8.666;2022-07-29T09:10:58;17.30;;;6.17;;
5553;SDS011;2800;49.528;8.666;2022-07-29T09:13:26;11.80;;;5.10;;
5553;SDS011;2800;49.528;8.666;2022-07-29T09:15:52;7.43;;;5.00;;
5553;SDS011;2800;49.528;8.666;2022-07-29T09:21:13;11.93;;;6.57;;
5553;SDS011;2800;49.528;8.666;2022-07-29T09:26:28;13.73;;;6.53;;
5553;SDS011;2800;49.528;8.666;2022-07-29T09:28:57;11.37;;;6.40;;
5553;SDS011;2800;49.528;8.666;2022-07-29T09:31:35;11.97;;;6.27;;
5553;SDS011;2800;49.528;8.666;2022-07-29T09:34:03;11.50;;;6.40;;
5553;SDS011;2800;49.528;8.666;2022-07-29T09:36:30;12.70;;;6.90;;
5553;SDS011;2800;49.528;8.666;2022-07-29T09:38:59;14.10;;;6.47;;
5553;SDS011;2800;49.528;8.666;2022-07-29T09:41:26;12.43;;;6.40;;
5553;SDS011;2800;49.528;8.666;2022-07-29T09:43:58;13.20;;;6.77;;
5553;SDS011;2800;49.528;8.666;2022-07-29T09:46:25;12.23;;;6.10;;
5553;SDS011;2800;49.528;8.666;2022-07-29T09:51:45;11.80;;;6.83;;
5553;SDS011;2800;49.528;8.666;2022-07-29T09:54:23;11.33;;;6.80;;
5553;SDS011;2800;49.528;8.666;2022-07-29T09:56:51;12.03;;;6.27;;
5553;SDS011;2800;49.528;8.666;2022-07-29T09:59:17;11.67;;;6.10;;
5553;SDS011;2800;49.528;8.666;2022-07-29T10:01:45;10.30;;;5.80;;
5553;SDS011;2800;49.528;8.666;2022-07-29T10:04:11;9.30;;;6.00;;
5553;SDS011;2800;49.528;8.666;2022-07-29T10:06:54;10.70;;;5.77;;
5553;SDS011;2800;49.528;8.666;2022-07-29T10:09:21;18.43;;;6.57;;
5553;SDS011;2800;49.528;8.666;2022-07-29T10:12:02;11.00;;;5.83;;
5553;SDS011;2800;49.528;8.666;2022-07-29T10:14:36;11.47;;;6.50;;
5553;SDS011;2800;49.528;8.666;2022-07-29T10:17:03;10.60;;;6.67;;
5553;SDS011;2800;49.528;8.666;2022-07-29T10:19:29;11.43;;;6.37;;
5553;SDS011;2800;49.528;8.666;2022-07-29T10:21:57;9.03;;;5.80;;
5553;SDS011;2800;49.528;8.666;2022-07-29T10:24:27;10.87;;;6.17;;
5553;SDS011;2800;49.528;8.666;2022-07-29T10:26:54;14.30;;;6.43;;
5553;SDS011;2800;49.528;8.666;2022-07-29T10:29:21;11.07;;;6.00;;
5553;SDS011;2800;49.528;8.666;2022-07-29T10:32:05;11.43;;;6.20;;
5553;SDS011;2800;49.528;8.666;2022-07-29T10:34:42;10.70;;;5.93;;
5553;SDS011;2800;49.528;8.666;2022-07-29T10:43:26;15.13;;;6.97;;
5553;SDS011;2800;49.528;8.666;2022-07-29T10:46:00;11.20;;;6.27;;
5553;SDS011;2800;49.528;8.666;2022-07-29T10:48:27;12.50;;;6.87;;
5553;SDS011;2800;49.528;8.666;2022-07-29T10:50:53;15.70;;;6.83;;
5553;SDS011;2800;49.528;8.666;2022-07-29T10:53:25;14.10;;;6.60;;
5553;SDS011;2800;49.528;8.666;2022-07-29T10:56:28;12.43;;;6.37;;
5553;SDS011;2800;49.528;8.666;2022-07-29T11:01:46;17.93;;;6.23;;
5553;SDS011;2800;49.528;8.666;2022-07-29T11:04:12;11.63;;;5.80;;
5553;SDS011;2800;49.528;8.666;2022-07-29T11:09:27;10.13;;;5.80;;
5553;SDS011;2800;49.528;8.666;2022-07-29T11:11:54;13.23;;;5.40;;
5553;SDS011;2800;49.528;8.666;2022-07-29T11:17:16;12.10;;;6.50;;
5553;SDS011;2800;49.528;8.666;2022-07-29T11:19:42;9.50;;;5.63;;
5553;SDS011;2800;49.528;8.666;2022-07-29T11:22:09;10.80;;;6.27;;
5553;SDS011;2800;49.528;8.666;2022-07-29T11:24:36;9.50;;;6.07;;
5553;SDS011;2800;49.528;8.666;2022-07-29T11:29:38;12.40;;;6.03;;
5553;SDS011;2800;49.528;8.666;2022-07-29T11:32:12;11.67;;;6.27;;
5553;SDS011;2800;49.528;8.666;2022-07-29T11:34:40;8.63;;;5.60;;
5553;SDS011;2800;49.528;8.666;2022-07-29T11:47:36;12.73;;;6.00;;
5553;SDS011;2800;49.528;8.666;2022-07-29T11:50:04;14.70;;;6.40;;
5553;SDS011;2800;49.528;8.666;2022-07-29T11:52:38;11.93;;;5.67;;
5553;SDS011;2800;49.528;8.666;2022-07-29T11:55:11;11.97;;;6.17;;
5553;SDS011;2800;49.528;8.666;2022-07-29T11:57:45;19.17;;;6.40;;
5553;SDS011;2800;49.528;8.666;2022-07-29T12:00:16;12.97;;;6.17;;
5553;SDS011;2800;49.528;8.666;2022-07-29T12:02:56;10.30;;;5.90;;
5553;SDS011;2800;49.528;8.666;2022-07-29T12:05:57;12.60;;;5.80;;
5553;SDS011;2800;49.528;8.666;2022-07-29T12:08:19;10.43;;;5.60;;
5553;SDS011;2800;49.528;8.666;2022-07-29T12:10:47;9.90;;;5.00;;
5553;SDS011;2800;49.528;8.666;2022-07-29T12:13:16;10.93;;;5.40;;
5553;SDS011;2800;49.528;8.666;2022-07-29T12:15:51;13.03;;;6.03;;
5553;SDS011;2800;49.528;8.666;2022-07-29T12:18:22;13.30;;;5.40;;
5553;SDS011;2800;49.528;8.666;2022-07-29T12:20:48;10.30;;;5.90;;
5553;SDS011;2800;49.528;8.666;2022-07-29T12:23:14;10.00;;;6.23;;
5553;SDS011;2800;49.528;8.666;2022-07-29T12:25:41;11.23;;;5.70;;
5553;SDS011;2800;49.528;8.666;2022-07-29T12:28:09;14.87;;;6.20;;
5553;SDS011;2800;49.528;8.666;2022-07-29T12:30:44;9.47;;;5.40;;
5553;SDS011;2800;49.528;8.666;2022-07-29T12:33:21;12.50;;;5.43;;
5553;SDS011;2800;49.528;8.666;2022-07-29T12:35:51;12.20;;;5.80;;
5553;SDS011;2800;49.528;8.666;2022-07-29T12:38:20;15.90;;;6.70;;
5553;SDS011;2800;49.528;8.666;2022-07-29T12:40:46;12.57;;;5.60;;
5553;SDS011;2800;49.528;8.666;2022-07-29T12:43:17;11.80;;;5.10;;
5553;SDS011;2800;49.528;8.666;2022-07-29T12:45:45;9.53;;;5.60;;
5553;SDS011;2800;49.528;8.666;2022-07-29T12:48:13;12.10;;;5.80;;
5553;SDS011;2800;49.528;8.666;2022-07-29T12:50:55;12.37;;;5.77;;
5553;SDS011;2800;49.528;8.666;2022-07-29T12:53:22;12.47;;;5.60;;
5553;SDS011;2800;49.528;8.666;2022-07-29T12:55:49;9.70;;;5.10;;
5553;SDS011;2800;49.528;8.666;2022-07-29T12:58:25;13.07;;;5.80;;
5553;SDS011;2800;49.528;8.666;2022-07-29T13:01:14;10.90;;;5.30;;
5553;SDS011;2800;49.528;8.666;2022-07-29T13:04:00;11.20;;;5.27;;
5553;SDS011;2800;49.528;8.666;2022-07-29T13:06:30;11.60;;;5.13;;
5553;SDS011;2800;49.528;8.666;2022-07-29T13:11:34;14.83;;;5.43;;
5553;SDS011;2800;49.528;8.666;2022-07-29T13:14:00;10.70;;;4.90;;
5553;SDS011;2800;49.528;8.666;2022-07-29T13:16:26;11.60;;;5.50;;
5553;SDS011;2800;49.528;8.666;2022-07-29T13:19:05;14.73;;;5.33;;
5553;SDS011;2800;49.528;8.666;2022-07-29T13:21:33;9.10;;;4.90;;
5553;SDS011;2800;49.528;8.666;2022-07-29T13:23:59;11.17;;;5.27;;
5553;SDS011;2800;49.528;8.666;2022-07-29T13:26:24;15.00;;;5.17;;
5553;SDS011;2800;49.528;8.666;2022-07-29T13:28:50;9.63;;;5.23;;
5553;SDS011;2800;49.528;8.666;2022-07-29T13:31:15;10.33;;;4.60;;
5553;SDS011;2800;49.528;8.666;2022-07-29T13:33:41;11.60;;;4.63;;
5553;SDS011;2800;49.528;8.666;2022-07-29T13:36:06;12.70;;;5.07;;
5553;SDS011;2800;49.528;8.666;2022-07-29T13:38:32;11.00;;;4.73;;
5553;SDS011;2800;49.528;8.666;2022-07-29T13:40:58;18.27;;;5.10;;
5553;SDS011;2800;49.528;8.666;2022-07-29T13:43:25;14.53;;;4.67;;
5553;SDS011;2800;49.528;8.666;2022-07-29T13:45:50;15.37;;;5.47;;
5553;SDS011;2800;49.528;8.666;2022-07-29T13:48:16;14.93;;;5.83;;
5553;SDS011;2800;49.528;8.666;2022-07-29T13:50:42;12.60;;;4.83;;
5553;SDS011;2800;49.528;8.666;2022-07-29T13:53:07;11.87;;;4.43;;
5553;SDS011;2800;49.528;8.666;2022-07-29T13:55:33;14.40;;;4.60;;
5553;SDS011;2800;49.528;8.666;2022-07-29T13:57:59;13.37;;;5.50;;
5553;SDS011;2800;49.528;8.666;2022-07-29T14:00:25;10.70;;;4.63;;
5553;SDS011;2800;49.528;8.666;2022-07-29T14:02:51;7.70;;;4.70;;
5553;SDS011;2800;49.528;8.666;2022-07-29T14:05:17;8.13;;;4.70;;
5553;SDS011;2800;49.528;8.666;2022-07-29T14:07:42;10.10;;;4.83;;
5553;SDS011;2800;49.528;8.666;2022-07-29T14:10:08;9.67;;;4.70;;
5553;SDS011;2800;49.528;8.666;2022-07-29T14:12:34;14.00;;;5.30;;
5553;SDS011;2800;49.528;8.666;2022-07-29T14:14:59;12.17;;;4.80;;
5553;SDS011;2800;49.528;8.666;2022-07-29T14:17:25;10.40;;;4.47;;
5553;SDS011;2800;49.528;8.666;2022-07-29T14:19:50;8.40;;;4.30;;
5553;SDS011;2800;49.528;8.666;2022-07-29T14:22:16;10.50;;;4.73;;
5553;SDS011;2800;49.528;8.666;2022-07-29T14:24:43;8.73;;;4.77;;
5553;SDS011;2800;49.528;8.666;2022-07-29T14:27:09;16.03;;;4.73;;
5553;SDS011;2800;49.528;8.666;2022-07-29T14:29:35;11.20;;;4.63;;
5553;SDS011;2800;49.528;8.666;2022-07-29T14:32:00;10.47;;;5.00;;
5553;SDS011;2800;49.528;8.666;2022-07-29T14:34:26;9.03;;;4.77;;
5553;SDS011;2800;49.528;8.666;2022-07-29T14:36:52;9.90;;;4.70;;
5553;SDS011;2800;49.528;8.666;2022-07-29T14:39:20;8.33;;;4.83;;
5553;SDS011;2800;49.528;8.666;2022-07-29T14:41:47;13.40;;;5.07;;
5553;SDS011;2800;49.528;8.666;2022-07-29T14:44:13;10.00;;;4.57;;
5553;SDS011;2800;49.528;8.666;2022-07-29T14:46:39;9.93;;;4.97;;
5553;SDS011;2800;49.528;8.666;2022-07-29T14:49:05;7.27;;;4.23;;
5553;SDS011;2800;49.528;8.666;2022-07-29T14:51:30;9.70;;;4.37;;
5553;SDS011;2800;49.528;8.666;2022-07-29T14:53:56;11.13;;;4.57;;
5553;SDS011;2800;49.528;8.666;2022-07-29T14:56:22;11.90;;;4.33;;
5553;SDS011;2800;49.528;8.666;2022-07-29T14:58:48;11.30;;;4.13;;
5553;SDS011;2800;49.528;8.666;2022-07-29T15:01:13;9.50;;;4.00;;
5553;SDS011;2800;49.528;8.666;2022-07-29T15:03:39;8.07;;;4.20;;
5553;SDS011;2800;49.528;8.666;2022-07-29T15:06:05;9.30;;;4.20;;
5553;SDS011;2800;49.528;8.666;2022-07-29T15:08:30;10.43;;;4.17;;
5553;SDS011;2800;49.528;8.666;2022-07-29T15:10:56;8.03;;;4.43;;
5553;SDS011;2800;49.528;8.666;2022-07-29T15:13:25;9.20;;;4.60;;
5553;SDS011;2800;49.528;8.666;2022-07-29T15:15:51;11.20;;;5.17;;
5553;SDS011;2800;49.528;8.666;2022-07-29T15:18:17;6.87;;;4.43;;
5553;SDS011;2800;49.528;8.666;2022-07-29T15:20:42;9.13;;;4.73;;
5553;SDS011;2800;49.528;8.666;2022-07-29T15:23:10;10.47;;;4.43;;
5553;SDS011;2800;49.528;8.666;2022-07-29T15:25:37;21.13;;;4.40;;
5553;SDS011;2800;49.528;8.666;2022-07-29T15:28:03;7.07;;;3.90;;
5553;SDS011;2800;49.528;8.666;2022-07-29T15:30:32;7.90;;;3.90;;
5553;SDS011;2800;49.528;8.666;2022-07-29T15:32:58;9.50;;;4.37;;
5553;SDS011;2800;49.528;8.666;2022-07-29T15:35:23;15.30;;;4.53;;
5553;SDS011;2800;49.528;8.666;2022-07-29T15:37:49;8.77;;;4.10;;
5553;SDS011;2800;49.528;8.666;2022-07-29T15:40:15;11.90;;;4.10;;
5553;SDS011;2800;49.528;8.666;2022-07-29T15:42:40;10.63;;;4.33;;
5553;SDS011;2800;49.528;8.666;2022-07-29T15:45:06;9.73;;;4.43;;
5553;SDS011;2800;49.528;8.666;2022-07-29T15:47:33;7.37;;;4.10;;
5553;SDS011;2800;49.528;8.666;2022-07-29T15:50:00;11.30;;;4.30;;
5553;SDS011;2800;49.528;8.666;2022-07-29T15:52:26;9.20;;;4.13;;
5553;SDS011;2800;49.528;8.666;2022-07-29T15:54:52;7.47;;;4.10;;
5553;SDS011;2800;49.528;8.666;2022-07-29T15:57:19;5.90;;;4.00;;
5553;SDS011;2800;49.528;8.666;2022-07-29T15:59:44;8.00;;;4.47;;
5553;SDS011;2800;49.528;8.666;2022-07-29T16:02:10;12.07;;;4.27;;